createdAt,value
2023-05-25T00:01:03.000Z,55.17
2023-05-25T00:03:31.989Z,55.42
2023-05-25T00:06:01.672Z,55.26
2023-05-25T00:08:29.713Z,55.38
2023-05-25T00:10:56.637Z,55.52
2023-05-25T00:13:23.281Z,55.49
2023-05-25T00:15:50.234Z,55.68
2023-05-25T00:18:16.965Z,55.44
2023-05-25T00:20:44.687Z,55.37
2023-05-25T00:23:11.485Z,55.68
2023-05-25T00:25:38.185Z,55.77
2023-05-25T00:28:05.002Z,55.85
2023-05-25T00:30:31.707Z,55.98
2023-05-25T00:32:59.878Z,55.83
2023-05-25T00:35:26.426Z,55.60
2023-05-25T00:37:53.038Z,55.54
2023-05-25T00:40:19.886Z,55.40
2023-05-25T00:42:47.400Z,55.47
2023-05-25T00:45:13.996Z,55.41
2023-05-25T00:47:41.652Z,55.66
2023-05-25T00:50:09.697Z,55.93
2023-05-25T00:52:36.813Z,55.83
2023-05-25T00:55:04.206Z,55.96
2023-05-25T00:57:34.274Z,56.77
2023-05-25T01:00:05.059Z,56.32
2023-05-25T01:02:33.584Z,56.18
2023-05-25T01:05:02.657Z,56.02
2023-05-25T01:07:31.216Z,56.06
2023-05-25T01:10:02.315Z,56.32
2023-05-25T01:12:30.418Z,55.76
2023-05-25T01:14:58.187Z,56.13
2023-05-25T01:17:25.529Z,56.22
2023-05-25T01:20:08.807Z,56.04
2023-05-25T01:22:57.812Z,56.91
2023-05-25T01:25:36.702Z,57.30
2023-05-25T01:28:11.316Z,57.28
2023-05-25T01:30:42.348Z,57.04
2023-05-25T01:33:11.046Z,56.84
2023-05-25T01:35:39.483Z,56.75
2023-05-25T01:38:07.070Z,56.71
2023-05-25T01:40:33.752Z,56.71
2023-05-25T01:43:00.496Z,56.83
2023-05-25T01:45:28.215Z,56.98
2023-05-25T01:48:09.418Z,57.37
2023-05-25T01:50:45.176Z,57.26
2023-05-25T01:53:34.459Z,57.29
2023-05-25T01:56:08.836Z,56.79
2023-05-25T01:58:40.929Z,57.07
2023-05-25T02:01:09.413Z,56.65
2023-05-25T02:03:41.722Z,57.39
2023-05-25T02:06:08.722Z,56.72
2023-05-25T02:08:35.607Z,56.83
2023-05-25T02:11:03.647Z,57.18
2023-05-25T02:13:30.317Z,57.08
2023-05-25T02:15:56.968Z,57.20
2023-05-25T02:18:23.806Z,57.24
2023-05-25T02:20:50.407Z,57.38
2023-05-25T02:23:18.968Z,57.52
2023-05-25T02:25:46.563Z,57.43
2023-05-25T02:28:14.414Z,57.51
2023-05-25T02:30:41.061Z,57.74
2023-05-25T02:33:07.722Z,57.92
2023-05-25T02:38:02.573Z,58.34
2023-05-25T02:40:29.188Z,58.43
2023-05-25T02:42:55.895Z,58.62
2023-05-25T02:45:22.490Z,58.42
2023-05-25T02:47:49.222Z,58.41
2023-05-25T02:50:15.769Z,58.49
2023-05-25T02:52:42.521Z,58.31
2023-05-25T02:55:13.618Z,58.33
2023-05-25T02:57:41.037Z,58.43
2023-05-25T03:00:08.024Z,58.45
2023-05-25T03:02:35.104Z,58.43
2023-05-25T03:05:04.094Z,58.75
2023-05-25T03:07:31.734Z,58.71
2023-05-25T03:09:59.404Z,58.74
2023-05-25T03:12:26.028Z,58.60
2023-05-25T03:14:52.516Z,58.62
2023-05-25T03:17:19.203Z,58.32
2023-05-25T03:19:46.060Z,58.49
2023-05-25T03:22:12.687Z,58.44
2023-05-25T03:24:41.832Z,58.36
2023-05-25T03:27:08.880Z,58.53
2023-05-25T03:29:35.570Z,58.77
2023-05-25T03:32:02.282Z,58.53
2023-05-25T03:34:29.819Z,58.53
2023-05-25T03:36:56.561Z,58.55
2023-05-25T03:39:23.254Z,58.39
2023-05-25T03:41:49.992Z,58.36
2023-05-25T03:44:16.766Z,58.68
2023-05-25T03:46:43.653Z,58.31
2023-05-25T03:49:13.854Z,58.49
2023-05-25T03:51:44.426Z,58.43
2023-05-25T03:54:12.177Z,58.43
2023-05-25T03:56:38.739Z,58.55
2023-05-25T03:59:05.274Z,58.18
2023-05-25T04:01:31.786Z,58.50
2023-05-25T04:03:58.538Z,58.30
2023-05-25T04:06:30.083Z,58.49
2023-05-25T04:08:57.947Z,58.29
2023-05-25T04:11:25.627Z,58.19
2023-05-25T04:13:52.080Z,58.15
2023-05-25T04:16:18.904Z,58.46
2023-05-25T04:18:45.551Z,58.50
2023-05-25T04:21:12.072Z,58.34
2023-05-25T04:23:38.615Z,58.43
2023-05-25T04:26:13.370Z,58.47
2023-05-25T04:28:43.156Z,58.24
2023-05-25T04:31:09.889Z,58.47
2023-05-25T04:33:38.946Z,58.34
2023-05-25T04:36:06.441Z,58.40
2023-05-25T04:38:33.360Z,58.53
2023-05-25T04:41:02.020Z,58.62
2023-05-25T04:43:29.996Z,58.57
2023-05-25T04:45:57.702Z,58.74
2023-05-25T04:48:24.741Z,58.77
2023-05-25T04:50:53.008Z,58.83
2023-05-25T04:53:20.442Z,58.88
2023-05-25T04:55:47.167Z,58.97
2023-05-25T04:58:14.760Z,58.81
2023-05-25T05:00:42.051Z,59.04
2023-05-25T05:03:08.989Z,58.84
2023-05-25T05:05:36.848Z,58.62
2023-05-25T05:08:03.774Z,58.66
2023-05-25T05:10:30.415Z,58.63
2023-05-25T05:12:57.051Z,58.64
2023-05-25T05:15:23.666Z,58.54
2023-05-25T05:17:50.255Z,58.45
2023-05-25T05:20:16.927Z,58.56
2023-05-25T05:22:43.793Z,58.72
2023-05-25T05:25:10.519Z,58.79
2023-05-25T05:27:37.137Z,58.81
2023-05-25T05:30:04.105Z,58.80
2023-05-25T05:32:30.776Z,58.70
2023-05-25T05:34:57.421Z,59.08
2023-05-25T05:37:23.979Z,59.24
2023-05-25T05:39:52.638Z,59.35
2023-05-25T05:42:19.296Z,59.19
2023-05-25T05:44:45.892Z,59.25
2023-05-25T05:47:12.390Z,59.22
2023-05-25T05:49:39.509Z,58.95
2023-05-25T05:52:06.806Z,58.89
2023-05-25T05:54:33.414Z,58.81
2023-05-25T05:56:59.927Z,58.81
2023-05-25T05:59:26.601Z,58.76
2023-05-25T06:01:53.226Z,58.80
2023-05-25T06:04:19.856Z,58.83
2023-05-25T06:06:47.043Z,58.98
2023-05-25T06:09:13.849Z,58.80
2023-05-25T06:11:40.683Z,58.79
2023-05-25T06:14:07.235Z,58.96
2023-05-25T06:16:33.959Z,58.42
2023-05-25T06:19:01.222Z,58.76
2023-05-25T06:21:27.853Z,58.86
2023-05-25T06:23:55.217Z,58.88
2023-05-25T06:26:22.106Z,58.81
2023-05-25T06:28:50.067Z,58.85
2023-05-25T06:31:16.764Z,58.97
2023-05-25T06:33:43.292Z,59.26
2023-05-25T06:36:11.027Z,58.95
2023-05-25T06:38:37.622Z,59.13
2023-05-25T06:41:05.547Z,59.03
2023-05-25T06:43:32.349Z,59.20
2023-05-25T06:45:59.539Z,59.04
2023-05-25T06:48:26.533Z,59.05
2023-05-25T06:50:53.110Z,58.93
2023-05-25T06:53:19.759Z,58.85
2023-05-25T06:55:46.441Z,58.73
2023-05-25T06:58:14.883Z,58.90
2023-05-25T07:00:41.613Z,58.68
2023-05-25T07:03:08.259Z,58.82
2023-05-25T07:05:34.842Z,58.55
2023-05-25T07:08:01.417Z,58.47
2023-05-25T07:10:28.045Z,58.48
2023-05-25T07:12:54.608Z,58.38
2023-05-25T07:15:22.775Z,58.17
2023-05-25T07:17:50.147Z,57.67
2023-05-25T07:20:16.858Z,57.81
2023-05-25T07:22:43.788Z,57.71
2023-05-25T07:25:10.520Z,57.96
2023-05-25T07:27:37.196Z,58.26
2023-05-25T07:30:04.736Z,58.67
2023-05-25T07:32:31.344Z,58.70
2023-05-25T07:34:58.037Z,58.76
2023-05-25T07:37:24.872Z,58.62
2023-05-25T07:39:51.603Z,58.04
2023-05-25T07:42:21.806Z,57.67
2023-05-25T07:44:49.122Z,57.19
2023-05-25T07:47:15.986Z,56.83
2023-05-25T07:49:42.634Z,56.81
2023-05-25T07:52:09.283Z,56.46
2023-05-25T07:54:40.091Z,56.33
2023-05-25T07:57:07.819Z,56.21
2023-05-25T07:59:34.603Z,56.30
2023-05-25T08:02:01.247Z,56.46
2023-05-25T08:04:28.049Z,56.39
2023-05-25T08:06:54.684Z,56.31
2023-05-25T08:09:21.504Z,56.23
2023-05-25T08:11:47.977Z,56.12
2023-05-25T08:14:14.609Z,56.22
2023-05-25T08:16:41.555Z,56.33
2023-05-25T08:19:08.167Z,55.99
2023-05-25T08:21:35.219Z,55.72
2023-05-25T08:24:04.283Z,55.69
2023-05-25T08:26:45.378Z,56.18
2023-05-25T08:29:18.508Z,56.34
2023-05-25T08:31:49.479Z,56.36
2023-05-25T08:34:16.904Z,56.22
2023-05-25T08:39:35.896Z,55.50
2023-05-25T08:42:03.892Z,54.85
2023-05-25T08:44:30.565Z,54.54
2023-05-25T08:46:58.138Z,54.05
2023-05-25T08:49:26.522Z,53.90
2023-05-25T08:51:55.417Z,54.02
2023-05-25T08:54:30.239Z,53.50
2023-05-25T08:57:03.517Z,53.43
2023-05-25T08:59:42.234Z,53.41
2023-05-25T09:02:32.372Z,53.41
2023-05-25T09:05:01.732Z,53.59
2023-05-25T09:07:29.618Z,53.87
2023-05-25T09:09:57.809Z,53.82
2023-05-25T09:12:24.487Z,53.77
2023-05-25T09:14:53.560Z,53.77
2023-05-25T09:17:21.202Z,53.88
2023-05-25T09:19:47.993Z,53.51
2023-05-25T09:22:16.553Z,53.08
2023-05-25T09:24:44.833Z,53.31
2023-05-25T09:27:13.425Z,53.50
2023-05-25T09:29:40.072Z,53.20
2023-05-25T09:32:07.193Z,53.05
2023-05-25T09:34:34.154Z,53.34
2023-05-25T09:37:03.900Z,53.10
2023-05-25T09:39:30.999Z,53.21
2023-05-25T09:41:59.285Z,53.18
2023-05-25T09:44:27.006Z,52.82
2023-05-25T09:46:53.691Z,52.85
2023-05-25T09:49:21.303Z,52.85
2023-05-25T09:51:48.502Z,52.91
2023-05-25T09:54:15.728Z,52.82
2023-05-25T09:56:42.598Z,52.86
2023-05-25T09:59:09.356Z,53.05
2023-05-25T10:01:36.784Z,52.96
2023-05-25T10:04:04.733Z,53.24
2023-05-25T10:06:35.116Z,53.13
2023-05-25T10:09:03.419Z,53.35
2023-05-25T10:11:31.498Z,52.94
2023-05-25T10:14:03.835Z,53.04
2023-05-25T10:16:33.480Z,53.04
2023-05-25T10:19:22.032Z,52.37
2023-05-25T10:21:59.686Z,51.60
2023-05-25T10:24:39.194Z,50.76
2023-05-25T10:27:22.423Z,51.98
2023-05-25T10:29:57.283Z,51.56
2023-05-25T10:32:24.797Z,51.75
2023-05-25T10:34:52.459Z,51.83
2023-05-25T10:37:19.292Z,51.79
2023-05-25T10:39:46.343Z,51.79
2023-05-25T10:42:13.329Z,51.12
2023-05-25T10:44:43.485Z,49.49
2023-05-25T10:47:10.792Z,49.68
2023-05-25T10:49:55.525Z,49.03
2023-05-25T10:52:26.565Z,48.87
2023-05-25T10:54:56.594Z,48.36
2023-05-25T10:57:24.208Z,48.64
2023-05-25T10:59:52.177Z,48.39
2023-05-25T11:02:24.897Z,47.75
2023-05-25T11:05:30.875Z,47.54
2023-05-25T11:07:59.130Z,48.00
2023-05-25T11:10:53.082Z,47.72
2023-05-25T11:13:32.051Z,46.90
2023-05-25T11:16:09.326Z,46.91
2023-05-25T11:18:41.383Z,46.92
2023-05-25T11:21:16.795Z,46.65
2023-05-25T11:24:04.378Z,47.27
2023-05-25T11:26:33.625Z,46.95
2023-05-25T11:29:02.109Z,46.72
2023-05-25T11:31:36.435Z,47.33
2023-05-25T11:34:06.262Z,47.29
2023-05-25T11:36:36.921Z,47.23
2023-05-25T11:39:11.665Z,47.98
2023-05-25T11:41:52.611Z,46.91
2023-05-25T11:44:30.075Z,46.60
2023-05-25T11:47:01.623Z,46.55
2023-05-25T11:49:28.519Z,46.03
2023-05-25T11:51:57.072Z,44.81
2023-05-25T11:54:28.800Z,43.99
2023-05-25T11:56:59.371Z,44.65
2023-05-25T11:59:29.799Z,45.48
2023-05-25T12:01:59.601Z,46.95
2023-05-25T12:04:26.918Z,45.17
2023-05-25T12:07:01.404Z,44.74
2023-05-25T12:09:28.065Z,44.18
2023-05-25T12:11:54.830Z,43.54
2023-05-25T12:14:21.688Z,42.71
2023-05-25T12:16:48.503Z,42.65
2023-05-25T12:19:16.952Z,42.54
2023-05-25T12:21:43.823Z,42.27
2023-05-25T12:24:14.504Z,43.44
2023-05-25T12:26:49.433Z,43.55
2023-05-25T12:29:16.487Z,45.20
2023-05-25T12:31:43.131Z,44.98
2023-05-25T12:34:15.322Z,42.67
2023-05-25T12:36:46.458Z,41.58
2023-05-25T12:39:14.655Z,40.64
2023-05-25T12:41:54.225Z,38.51
2023-05-25T12:44:37.562Z,37.15
2023-05-25T12:47:19.931Z,37.13
2023-05-25T12:49:51.337Z,39.42
2023-05-25T12:52:36.829Z,41.66
2023-05-25T12:55:29.073Z,40.45
2023-05-25T12:58:01.440Z,38.26
2023-05-25T13:00:36.085Z,37.40
2023-05-25T13:03:03.645Z,37.04
2023-05-25T13:05:36.936Z,36.40
2023-05-25T13:08:05.335Z,37.50
2023-05-25T13:10:33.043Z,37.42
2023-05-25T13:13:00.702Z,37.21
2023-05-25T13:15:27.649Z,38.61
2023-05-25T13:17:56.407Z,37.84
2023-05-25T13:20:25.535Z,38.28
2023-05-25T13:22:53.583Z,36.73
2023-05-25T13:25:22.395Z,36.00
2023-05-25T13:27:51.057Z,34.78
2023-05-25T13:30:17.980Z,34.21
2023-05-25T13:32:45.018Z,34.69
2023-05-25T13:35:18.626Z,34.65
2023-05-25T13:37:48.027Z,33.84
2023-05-25T13:40:14.916Z,33.80
2023-05-25T13:42:41.498Z,33.34
2023-05-25T13:45:08.792Z,33.07
2023-05-25T13:47:35.517Z,33.74
2023-05-25T13:50:02.275Z,34.71
2023-05-25T13:52:28.854Z,35.59
2023-05-25T13:54:55.488Z,35.35
2023-05-25T13:57:22.620Z,34.47
2023-05-25T13:59:49.435Z,34.55
2023-05-25T14:02:16.551Z,33.42
2023-05-25T14:04:43.189Z,33.30
2023-05-25T14:07:09.778Z,33.04
2023-05-25T14:09:36.619Z,33.77
2023-05-25T14:12:03.400Z,33.86
2023-05-25T14:14:32.458Z,32.87
2023-05-25T14:17:00.261Z,32.49
2023-05-25T14:19:27.122Z,32.15
2023-05-25T14:22:11.180Z,31.85
2023-05-25T14:24:38.924Z,31.28
2023-05-25T14:27:07.214Z,30.56
2023-05-25T14:29:34.282Z,30.02
2023-05-25T14:32:01.410Z,29.58
2023-05-25T14:34:28.646Z,28.56
2023-05-25T14:36:55.392Z,29.46
2023-05-25T14:39:22.022Z,28.95
2023-05-25T14:41:48.611Z,28.69
2023-05-25T14:44:15.354Z,29.50
2023-05-25T14:46:41.995Z,29.02
2023-05-25T14:49:08.750Z,28.95
2023-05-25T14:51:35.871Z,29.18
2023-05-25T14:54:05.664Z,28.91
2023-05-25T14:56:32.442Z,28.50
2023-05-25T14:58:58.962Z,28.33
2023-05-25T15:01:25.778Z,27.78
2023-05-25T15:03:52.641Z,27.05
2023-05-25T15:06:19.604Z,26.97
2023-05-25T15:08:46.413Z,26.63
2023-05-25T15:11:13.059Z,26.15
2023-05-25T15:13:40.950Z,26.04
2023-05-25T15:16:11.302Z,25.97
2023-05-25T15:18:37.912Z,26.26
2023-05-25T15:21:04.606Z,26.41
2023-05-25T15:23:32.167Z,25.85
2023-05-25T15:26:03.181Z,26.09
2023-05-25T15:28:35.652Z,25.73
2023-05-25T15:31:03.427Z,25.63
2023-05-25T15:33:48.360Z,24.97
2023-05-25T15:36:18.512Z,25.90
2023-05-25T15:38:48.928Z,25.46
2023-05-25T15:41:18.872Z,25.56
2023-05-25T15:43:52.574Z,24.89
2023-05-25T15:46:19.487Z,24.75
2023-05-25T15:48:46.061Z,24.88
2023-05-25T15:51:12.718Z,24.76
2023-05-25T15:53:39.247Z,25.17
2023-05-25T15:56:05.944Z,24.25
2023-05-25T15:58:34.517Z,24.63
2023-05-25T16:01:01.565Z,24.48
2023-05-25T16:03:28.634Z,24.09
2023-05-25T16:05:55.800Z,24.55
2023-05-25T16:08:22.576Z,24.75
2023-05-25T16:10:49.395Z,25.13
2023-05-25T16:13:16.220Z,24.67
2023-05-25T16:15:42.989Z,24.70
2023-05-25T16:18:09.702Z,24.58
2023-05-25T16:20:36.633Z,24.73
2023-05-25T16:23:03.328Z,24.44
2023-05-25T16:25:29.966Z,24.46
2023-05-25T16:27:56.642Z,24.01
2023-05-25T16:30:23.762Z,24.41
2023-05-25T16:32:50.687Z,24.91
2023-05-25T16:35:17.343Z,25.10
2023-05-25T16:37:44.758Z,25.53
2023-05-25T16:40:11.612Z,25.78
2023-05-25T16:42:38.199Z,25.79
2023-05-25T16:45:05.376Z,26.17
2023-05-25T16:47:31.921Z,26.54
2023-05-25T16:49:58.554Z,27.05
2023-05-25T16:52:25.085Z,27.48
2023-05-25T16:54:51.588Z,27.41
2023-05-25T16:57:18.280Z,28.15
2023-05-25T16:59:45.639Z,28.57
2023-05-25T17:02:12.245Z,28.48
2023-05-25T17:04:38.870Z,28.62
2023-05-25T17:07:06.341Z,28.81
2023-05-25T17:09:33.181Z,29.12
2023-05-25T17:12:01.648Z,29.48
2023-05-25T17:14:28.310Z,30.02
2023-05-25T17:16:54.996Z,30.07
2023-05-25T17:19:24.756Z,30.69
2023-05-25T17:29:25.879Z,30.58
2023-05-25T17:31:52.416Z,31.04
2023-05-25T17:34:18.934Z,31.28
2023-05-25T17:36:45.365Z,31.50
2023-05-25T17:39:11.851Z,31.86
2023-05-25T17:41:38.328Z,32.12
2023-05-25T17:44:04.812Z,32.41
2023-05-25T17:46:31.358Z,32.47
2023-05-25T17:48:57.968Z,32.77
2023-05-25T17:51:24.371Z,32.84
2023-05-25T17:53:50.968Z,32.84
2023-05-25T17:56:17.373Z,33.26
2023-05-25T17:58:47.317Z,33.18
2023-05-25T18:01:15.142Z,33.20
2023-05-25T18:03:42.093Z,33.37
2023-05-25T18:06:08.570Z,33.40
2023-05-25T18:08:35.034Z,33.54
2023-05-25T18:11:01.602Z,33.59
2023-05-25T18:13:28.085Z,33.60
2023-05-25T18:15:54.526Z,34.30
2023-05-25T18:18:23.147Z,34.21
2023-05-25T18:20:49.625Z,34.34
2023-05-25T18:23:16.317Z,34.42
2023-05-25T18:25:42.804Z,34.47
2023-05-25T18:28:09.449Z,34.74
2023-05-25T18:30:35.845Z,34.88
2023-05-25T18:33:03.408Z,35.38
2023-05-25T18:35:29.850Z,35.46
2023-05-25T18:37:56.364Z,35.22
2023-05-25T18:40:23.197Z,35.31
2023-05-25T18:42:50.776Z,35.47
2023-05-25T18:45:17.218Z,35.50
2023-05-25T18:47:44.107Z,35.74
2023-05-25T18:50:11.841Z,35.73
2023-05-25T18:52:38.606Z,35.80
2023-05-25T18:55:06.231Z,35.88
2023-05-25T18:57:32.984Z,35.97
2023-05-25T18:59:59.522Z,36.36
2023-05-25T19:02:26.403Z,36.46
2023-05-25T19:04:53.128Z,36.40
2023-05-25T19:07:19.581Z,36.70
2023-05-25T19:09:47.960Z,36.75
2023-05-25T19:12:15.411Z,36.69
2023-05-25T19:14:42.056Z,37.05
2023-05-25T19:17:08.740Z,37.13
2023-05-25T19:19:35.236Z,36.93
2023-05-25T19:22:01.641Z,37.14
2023-05-25T19:24:28.062Z,37.68
2023-05-25T19:26:54.550Z,37.94
2023-05-25T19:29:21.148Z,37.96
2023-05-25T19:31:47.551Z,38.09
2023-05-25T19:34:14.156Z,38.05
2023-05-25T19:36:40.653Z,38.26
2023-05-25T19:39:07.197Z,38.22
2023-05-25T19:41:33.619Z,38.53
2023-05-25T19:44:00.161Z,38.65
2023-05-25T19:46:26.666Z,38.78
2023-05-25T19:48:53.377Z,38.92
2023-05-25T20:01:52.697Z,38.23
2023-05-25T20:04:19.206Z,38.69
2023-05-25T20:06:45.917Z,39.34
2023-05-25T20:09:13.987Z,39.44
2023-05-25T20:11:41.539Z,40.05
2023-05-25T20:14:08.014Z,39.98
2023-05-25T20:16:34.728Z,40.13
2023-05-25T20:19:01.973Z,40.42
2023-05-25T20:21:28.908Z,40.49
2023-05-25T20:23:56.763Z,40.55
2023-05-25T20:26:23.317Z,40.75
2023-05-25T20:28:49.698Z,40.59
2023-05-25T20:31:16.438Z,40.69
2023-05-25T20:33:43.169Z,41.00
2023-05-25T20:36:09.920Z,41.15
2023-05-25T20:41:36.419Z,41.01
2023-05-25T20:44:06.368Z,41.07
2023-05-25T20:46:34.130Z,41.37
2023-05-25T20:49:01.036Z,41.14
2023-05-25T20:51:27.558Z,41.58
2023-05-25T20:53:54.245Z,41.59
2023-05-25T20:56:21.535Z,41.50
2023-05-25T20:58:48.158Z,41.67
2023-05-25T21:01:15.655Z,41.84
2023-05-25T21:03:42.338Z,41.98
2023-05-25T21:06:09.006Z,42.09
2023-05-25T21:08:35.613Z,42.14
2023-05-25T21:11:02.535Z,42.20
2023-05-25T21:13:29.086Z,42.21
2023-05-25T21:15:55.859Z,42.31
2023-05-25T21:18:22.487Z,42.37
2023-05-25T21:20:49.226Z,42.19
2023-05-25T21:23:15.761Z,42.53
2023-05-25T21:25:42.375Z,42.78
2023-05-25T21:28:10.346Z,42.73
2023-05-25T21:30:36.836Z,42.78
2023-05-25T21:33:03.450Z,42.97
2023-05-25T21:35:29.883Z,42.84
2023-05-25T21:37:56.510Z,43.00
2023-05-25T21:40:22.973Z,43.16
2023-05-25T21:42:51.249Z,43.23
2023-05-25T21:45:17.907Z,43.45
2023-05-25T21:47:44.500Z,43.65
2023-05-25T21:50:11.088Z,43.81
2023-05-25T21:52:37.729Z,43.84
2023-05-25T21:55:04.794Z,43.99
2023-05-25T21:57:31.288Z,44.36
2023-05-25T21:59:57.728Z,44.26
2023-05-25T22:02:24.327Z,44.42
2023-05-25T22:04:51.038Z,44.74
2023-05-25T22:07:17.485Z,44.86
2023-05-25T22:09:44.044Z,44.85
2023-05-25T22:12:12.734Z,44.99
2023-05-25T22:14:39.399Z,45.05
2023-05-25T22:17:06.151Z,45.02
2023-05-25T22:19:32.784Z,45.12
2023-05-25T22:21:59.359Z,45.26
2023-05-25T22:24:25.919Z,45.57
2023-05-25T22:26:52.475Z,45.57
2023-05-25T22:29:19.037Z,45.61
2023-05-25T22:31:45.946Z,45.53
2023-05-25T22:34:12.497Z,45.78
2023-05-25T22:36:38.993Z,46.27
2023-05-25T22:39:05.579Z,45.95
2023-05-25T22:41:32.098Z,46.14
2023-05-25T22:43:58.703Z,46.06
2023-05-25T22:46:25.259Z,46.25
2023-05-25T22:48:51.954Z,46.51
2023-05-25T22:51:18.535Z,46.30
2023-05-25T22:53:45.032Z,46.59
2023-05-25T22:56:11.711Z,46.74
2023-05-25T22:58:38.596Z,46.94
2023-05-25T23:01:05.402Z,47.19
2023-05-25T23:03:32.133Z,47.19
2023-05-25T23:05:58.808Z,47.42
2023-05-25T23:08:25.521Z,47.47
2023-05-25T23:10:52.063Z,47.54
2023-05-25T23:13:19.274Z,47.60
2023-05-25T23:15:47.582Z,47.80
2023-05-25T23:18:14.361Z,47.91
2023-05-25T23:20:41.077Z,47.96
2023-05-25T23:23:07.748Z,47.93
2023-05-25T23:25:34.345Z,48.16
2023-05-25T23:28:00.851Z,48.21
2023-05-25T23:30:27.460Z,48.20
2023-05-25T23:32:54.095Z,48.41
2023-05-25T23:35:22.390Z,48.46
2023-05-25T23:37:50.164Z,48.50
2023-05-25T23:40:16.647Z,48.51
2023-05-25T23:42:43.899Z,48.69
2023-05-25T23:45:10.809Z,48.62
2023-05-25T23:47:37.336Z,48.80
2023-05-25T23:50:04.191Z,48.88
2023-05-25T23:52:30.914Z,49.07
2023-05-25T23:54:57.447Z,49.07
2023-05-25T23:57:23.955Z,49.15
2023-05-25T23:59:50.660Z,49.28
